Time;durP1;ratioP1;P1;durP2;ratioP2;P2;SDS_P1;SDS_P2;PMS_P1;PMS_P2;Temp;Humidity;BMP_temperature;BMP_pressure;BME280_temperature;BME280_humidity;BME280_pressure;Samples;Min_cycle;Max_cycle;Signal;HPM_P1;HPM_P2
2022/07/24 00:00:05;;;;;;;9.27;7.57;;;;;;;18.80;79.31;101757.81;5093224;28;20036;-59
2022/07/24 00:02:31;;;;;;;9.07;7.00;;;;;;;18.82;80.18;101771.91;5092881;28;20437;-59
2022/07/24 00:04:56;;;;;;;9.00;7.57;;;;;;;18.82;79.68;101777.19;5093333;28;20114;-59
2022/07/24 00:07:22;;;;;;;9.15;6.80;;;;;;;18.77;79.87;101771.16;5093164;28;20028;-59
2022/07/24 00:09:47;;;;;;;9.52;6.97;;;;;;;18.74;79.55;101764.19;5093286;28;20055;-59
2022/07/24 00:12:12;;;;;;;10.20;7.13;;;;;;;18.75;80.33;101770.34;5092967;28;20453;-59
2022/07/24 00:14:38;;;;;;;10.13;7.78;;;;;;;18.73;80.44;101769.53;5093026;28;20262;-59
2022/07/24 00:17:03;;;;;;;9.15;6.93;;;;;;;18.69;80.67;101765.28;5092633;28;20127;-60
2022/07/24 00:19:28;;;;;;;8.40;7.00;;;;;;;18.70;80.34;101761.69;5093041;28;20039;-60
2022/07/24 00:21:54;;;;;;;8.03;7.23;;;;;;;18.65;81.22;101753.03;5092771;28;20032;-59
2022/07/24 00:24:19;;;;;;;10.38;7.20;;;;;;;18.61;80.40;101751.38;5092845;28;20304;-60
2022/07/24 00:26:44;;;;;;;8.18;7.07;;;;;;;18.64;80.86;101757.44;5092954;28;20024;-59
2022/07/24 00:29:09;;;;;;;9.73;7.30;;;;;;;18.65;80.65;101760.97;5092805;28;20032;-59
2022/07/24 00:31:35;;;;;;;7.50;6.70;;;;;;;18.62;81.15;101758.41;5092485;28;20282;-60
2022/07/24 00:34:00;;;;;;;9.07;7.30;;;;;;;18.59;81.02;101756.72;5092595;28;20281;-60
2022/07/24 00:36:25;;;;;;;8.43;7.10;;;;;;;18.51;81.35;101755.22;5092885;28;20056;-59
2022/07/24 00:38:51;;;;;;;8.73;6.78;;;;;;;18.37;81.22;101742.38;5092458;28;20046;-59
2022/07/24 00:41:16;;;;;;;9.13;7.30;;;;;;;18.53;80.72;101764.00;5092243;28;20070;-59
2022/07/24 00:44:03;;;;;;;7.90;7.10;;;;;;;18.54;79.54;101763.91;5092404;28;20043;-59
2022/07/24 00:46:29;;;;;;;11.60;7.57;;;;;;;18.67;77.50;101764.44;5091684;28;20051;-60
2022/07/24 00:48:54;;;;;;;9.70;7.70;;;;;;;18.77;77.21;101761.44;5092487;28;20067;-60
2022/07/24 00:51:20;;;;;;;10.57;7.40;;;;;;;18.82;76.43;101765.72;5092208;28;20047;-60
2022/07/24 00:53:47;;;;;;;12.80;7.28;;;;;;;18.87;76.77;101764.66;5092460;28;20493;-60
2022/07/24 00:56:13;;;;;;;8.10;7.20;;;;;;;18.91;75.86;101754.78;5092474;28;20032;-60
2022/07/24 00:58:39;;;;;;;10.23;8.15;;;;;;;18.94;75.48;101755.56;5091828;28;20032;-60
2022/07/24 01:01:04;;;;;;;11.15;7.20;;;;;;;19.01;75.31;101758.91;5110735;28;20100;-60
2022/07/24 01:03:29;;;;;;;9.88;7.10;;;;;;;18.95;74.57;101746.69;5112413;28;20093;-60
2022/07/24 01:05:54;;;;;;;9.87;7.90;;;;;;;18.99;74.19;101758.06;5112378;28;20678;-60
2022/07/24 01:08:21;;;;;;;8.20;7.38;;;;;;;19.05;74.32;101763.16;5112428;28;20346;-60
2022/07/24 01:10:46;;;;;;;11.55;8.10;;;;;;;19.06;73.88;101755.16;5112515;28;20031;-60
2022/07/24 01:13:12;;;;;;;10.50;7.35;;;;;;;19.07;73.75;101753.38;5112437;28;20041;-60
2022/07/24 01:15:37;;;;;;;9.15;7.80;;;;;;;19.07;73.81;101756.88;5112373;28;20069;-60
2022/07/24 01:18:03;;;;;;;8.50;7.20;;;;;;;19.09;73.80;101749.75;5112087;28;20107;-60
2022/07/24 01:20:28;;;;;;;9.13;7.30;;;;;;;19.11;73.43;101747.03;5112382;28;20035;-60
2022/07/24 01:22:53;;;;;;;10.10;7.50;;;;;;;19.05;74.13;101740.16;5112288;28;20031;-60
2022/07/24 01:25:18;;;;;;;8.82;7.15;;;;;;;19.02;73.89;101739.41;5112242;28;20391;-60
2022/07/24 01:27:44;;;;;;;11.18;7.68;;;;;;;19.01;74.13;101740.31;5112418;28;20036;-59
2022/07/24 01:30:09;;;;;;;7.93;6.93;;;;;;;18.98;74.90;101741.28;5112020;28;20031;-58
2022/07/24 01:32:35;;;;;;;7.53;6.60;;;;;;;18.85;75.60;101744.41;5111861;28;20065;-59
2022/07/24 01:35:00;;;;;;;10.57;7.00;;;;;;;18.82;75.74;101750.69;5112146;28;20038;-60
2022/07/24 01:37:26;;;;;;;9.00;7.63;;;;;;;18.73;76.42;101748.31;5112299;28;20027;-60
2022/07/24 01:39:51;;;;;;;9.68;6.90;;;;;;;18.71;76.72;101750.16;5112117;28;20118;-60
2022/07/24 01:42:19;;;;;;;8.60;7.00;;;;;;;18.63;77.55;101745.13;5111856;28;20065;-60
2022/07/24 01:44:45;;;;;;;8.95;7.38;;;;;;;18.63;76.76;101745.13;5111504;28;20039;-60
2022/07/24 01:47:10;;;;;;;7.80;6.97;;;;;;;18.57;77.55;101745.25;5111901;28;20410;-60
2022/07/24 01:49:35;;;;;;;11.02;7.95;;;;;;;18.51;77.36;101742.84;5111824;28;20028;-60
2022/07/24 01:52:00;;;;;;;10.30;7.47;;;;;;;18.49;78.72;101742.00;5112020;28;20063;-61
2022/07/24 01:54:26;;;;;;;9.40;7.97;;;;;;;18.46;78.08;101735.94;5112149;28;20042;-60
2022/07/24 01:56:51;;;;;;;9.07;8.18;;;;;;;18.36;78.74;101733.56;5111828;28;20031;-60
2022/07/24 01:59:16;;;;;;;10.93;7.50;;;;;;;18.36;79.03;101732.69;5115079;28;20027;-60
2022/07/24 02:01:41;;;;;;;8.80;7.13;;;;;;;18.34;79.29;101743.38;5115988;28;20040;-60
2022/07/24 02:04:07;;;;;;;10.93;8.55;;;;;;;18.32;79.66;101742.53;5116075;28;20036;-60
2022/07/24 02:06:32;;;;;;;9.57;7.90;;;;;;;18.32;79.75;101736.38;5115949;28;20108;-60
2022/07/24 02:08:57;;;;;;;10.68;7.95;;;;;;;18.22;79.93;101740.19;5115324;28;20071;-59
2022/07/24 02:11:22;;;;;;;11.57;8.32;;;;;;;18.19;80.34;101733.22;5115698;28;20034;-60
2022/07/24 02:13:48;;;;;;;10.98;8.70;;;;;;;18.14;80.12;101737.81;5115820;28;20793;-59
2022/07/24 02:16:13;;;;;;;10.88;9.30;;;;;;;18.05;80.59;101733.63;5115400;28;20042;-59
2022/07/24 02:18:38;;;;;;;11.93;9.15;;;;;;;18.05;82.07;101735.41;5115594;28;20136;-59
2022/07/24 02:21:04;;;;;;;10.23;9.18;;;;;;;18.02;81.72;101736.38;5115600;28;20040;-59
2022/07/24 02:23:29;;;;;;;10.25;8.88;;;;;;;18.00;81.83;101732.06;5115522;28;20027;-59
2022/07/24 02:25:54;;;;;;;13.45;9.27;;;;;;;17.97;82.47;101737.44;5115687;28;20098;-60
2022/07/24 02:28:20;;;;;;;11.50;9.23;;;;;;;17.97;81.57;101734.81;5115462;28;20483;-59
2022/07/24 02:30:45;;;;;;;10.35;9.25;;;;;;;17.90;82.18;101730.59;5115446;28;20031;-58
2022/07/24 02:33:11;;;;;;;10.57;9.18;;;;;;;17.89;82.46;101740.31;5115068;28;20047;-59
2022/07/24 02:35:37;;;;;;;11.85;9.63;;;;;;;17.83;82.78;101737.84;5115461;28;20474;-61
2022/07/24 02:38:03;;;;;;;12.68;10.00;;;;;;;17.79;83.00;101724.75;5115579;28;20055;-59
2022/07/24 02:40:29;;;;;;;10.80;9.70;;;;;;;17.78;83.01;101730.94;5115389;28;20032;-60
2022/07/24 02:42:55;;;;;;;10.90;9.80;;;;;;;17.77;83.08;101731.88;5114716;28;20046;-61
2022/07/24 02:45:20;;;;;;;10.75;9.38;;;;;;;17.71;83.03;101735.53;5115190;28;20032;-58
2022/07/24 02:47:53;;;;;;;11.57;9.25;;;;;;;17.64;83.34;101748.09;5115087;28;20035;-59
2022/07/24 02:50:20;;;;;;;10.90;9.80;;;;;;;17.67;83.96;101744.47;5115176;28;20505;-59
2022/07/24 02:52:46;;;;;;;11.13;9.93;;;;;;;17.66;84.47;101754.19;5115202;28;20030;-60
2022/07/24 02:55:12;;;;;;;14.52;10.38;;;;;;;17.62;83.99;101752.53;5114701;28;20035;-59
2022/07/24 02:57:37;;;;;;;14.70;11.00;;;;;;;17.64;83.83;101744.59;5114941;28;20031;-59
2022/07/24 03:00:10;;;;;;;14.27;10.60;;;;;;;17.63;83.93;101750.75;5115073;28;20042;-59
2022/07/24 03:02:35;;;;;;;14.25;10.75;;;;;;;17.58;85.06;101745.59;5114904;28;20193;-59
2022/07/24 03:05:03;;;;;;;20.25;10.95;;;;;;;17.54;84.39;101738.63;5114533;28;20494;-60
2022/07/24 03:07:28;;;;;;;13.57;11.20;;;;;;;17.52;84.54;101740.44;5114267;28;20390;-59
2022/07/24 03:09:53;;;;;;;12.98;10.80;;;;;;;17.56;84.64;101738.59;5113867;28;20043;-59
2022/07/24 03:12:19;;;;;;;15.05;11.95;;;;;;;17.52;84.50;101740.44;5114649;28;20852;-59
2022/07/24 03:14:44;;;;;;;16.65;12.52;;;;;;;17.57;85.01;101735.03;5114481;28;20040;-59
2022/07/24 03:17:09;;;;;;;16.75;11.82;;;;;;;17.51;85.91;101740.50;5114231;28;20038;-59
2022/07/24 03:19:35;;;;;;;19.08;13.18;;;;;;;17.53;85.15;101736.03;5114521;28;20503;-59
2022/07/24 03:22:00;;;;;;;15.40;12.45;;;;;;;17.50;85.47;101739.63;5114156;28;20097;-60
2022/07/24 03:24:25;;;;;;;17.25;13.93;;;;;;;17.45;85.48;101733.63;5114026;28;20028;-60
2022/07/24 03:26:50;;;;;;;15.68;13.48;;;;;;;17.46;86.02;101730.06;5114411;28;20031;-60
2022/07/24 03:29:16;;;;;;;14.95;13.18;;;;;;;17.46;85.78;101730.06;5114100;28;20073;-59
2022/07/24 03:31:41;;;;;;;17.15;14.43;;;;;;;17.34;86.58;101733.03;5095883;28;20055;-59
2022/07/24 03:34:07;;;;;;;16.85;14.05;;;;;;;17.37;86.43;101735.59;5114064;28;20447;-60
2022/07/24 03:36:33;;;;;;;16.10;13.93;;;;;;;17.37;86.37;101739.09;5114369;28;20072;-60
2022/07/24 03:38:58;;;;;;;18.25;14.63;;;;;;;17.33;87.04;101739.22;5114206;28;20031;-59
2022/07/24 03:41:23;;;;;;;20.48;15.82;;;;;;;17.34;86.56;101740.97;5114225;28;20037;-60
2022/07/24 03:43:49;;;;;;;21.50;15.80;;;;;;;17.32;87.18;101741.00;5114162;28;20039;-60
2022/07/24 03:46:14;;;;;;;18.77;15.95;;;;;;;17.30;87.33;101744.63;5114044;28;20460;-60
2022/07/24 03:48:40;;;;;;;20.65;16.15;;;;;;;17.31;86.78;101735.78;5114039;28;20032;-59
2022/07/24 03:51:05;;;;;;;20.60;15.63;;;;;;;17.27;87.20;101726.19;5113975;28;20078;-60
2022/07/24 03:53:30;;;;;;;21.27;17.08;;;;;;;17.14;87.38;101706.25;5114021;28;20034;-60
2022/07/24 03:55:56;;;;;;;22.33;16.67;;;;;;;17.23;87.70;101728.03;5113823;28;20419;-60
2022/07/24 03:58:21;;;;;;;22.15;17.88;;;;;;;17.23;87.50;101724.50;5113694;28;20035;-59
2022/07/24 04:00:46;;;;;;;20.73;17.70;;;;;;;17.23;88.04;101717.44;5113747;28;20526;-60
2022/07/24 04:03:11;;;;;;;24.02;19.30;;;;;;;17.19;88.29;101722.84;5113355;28;20031;-59
2022/07/24 04:05:37;;;;;;;22.92;19.45;;;;;;;17.18;88.14;101721.13;5113291;28;20040;-59
2022/07/24 04:08:02;;;;;;;24.77;19.65;;;;;;;17.18;88.96;101718.47;5113693;28;20031;-60
2022/07/24 04:10:28;;;;;;;27.13;20.60;;;;;;;17.19;88.71;101728.16;5113419;28;20155;-60
2022/07/24 04:12:53;;;;;;;29.10;20.80;;;;;;;17.19;89.10;101730.78;5113269;28;20116;-60
2022/07/24 04:15:18;;;;;;;23.40;19.02;;;;;;;17.19;89.38;101723.72;5113296;28;20067;-59
2022/07/24 04:17:44;;;;;;;24.90;21.08;;;;;;;17.20;89.17;101722.81;5113355;28;20063;-59
2022/07/24 04:20:10;;;;;;;25.42;20.65;;;;;;;17.26;88.65;101713.84;5113389;28;20084;-59
2022/07/24 04:22:35;;;;;;;24.42;20.05;;;;;;;17.22;89.38;101718.34;5112468;28;20031;-59
2022/07/24 04:25:00;;;;;;;27.13;22.17;;;;;;;17.24;89.25;101715.66;5113148;28;20043;-61
2022/07/24 04:27:26;;;;;;;27.63;21.38;;;;;;;17.22;89.03;101715.72;5113211;28;20032;-59
2022/07/24 04:29:51;;;;;;;29.08;22.42;;;;;;;17.31;89.09;101738.41;5112881;28;20031;-59
2022/07/24 04:32:16;;;;;;;29.88;21.92;;;;;;;17.33;89.36;101733.94;5112927;28;20058;-59
2022/07/24 04:34:41;;;;;;;29.02;22.98;;;;;;;17.28;89.53;101731.44;5112870;28;20031;-59
2022/07/24 04:37:07;;;;;;;29.98;23.40;;;;;;;17.35;89.79;101738.28;5113160;28;20047;-58
2022/07/24 04:39:32;;;;;;;33.35;24.10;;;;;;;17.34;89.81;101736.53;5113020;28;20043;-59
2022/07/24 04:41:57;;;;;;;31.75;23.85;;;;;;;17.34;89.98;101733.03;5112969;28;20032;-59
2022/07/24 04:44:23;;;;;;;32.17;24.75;;;;;;;17.35;90.38;101742.69;5112937;28;20063;-59
2022/07/24 04:46:48;;;;;;;33.38;24.48;;;;;;;17.38;90.37;101745.25;5112904;28;20483;-59
2022/07/24 04:49:13;;;;;;;31.58;25.30;;;;;;;17.39;90.40;101733.78;5112793;28;20031;-59
2022/07/24 04:51:39;;;;;;;36.88;27.05;;;;;;;17.38;90.77;101742.63;5112971;28;20055;-59
2022/07/24 04:54:04;;;;;;;33.00;26.37;;;;;;;17.42;90.45;101738.97;5112922;28;20031;-60
2022/07/24 04:56:32;;;;;;;38.67;28.55;;;;;;;17.44;90.90;101744.25;5112610;28;20281;-60
2022/07/24 04:58:58;;;;;;;41.63;31.05;;;;;;;17.33;91.24;101726.00;5112519;28;20032;-60
2022/07/24 05:01:23;;;;;;;40.40;30.38;;;;;;;17.44;91.48;101737.16;5112191;28;20042;-59
2022/07/24 05:03:48;;;;;;;40.00;29.92;;;;;;;17.51;90.83;101737.84;5112546;28;20035;-59
2022/07/24 05:06:13;;;;;;;40.33;30.65;;;;;;;17.53;91.26;101743.97;5112658;28;20133;-59
2022/07/24 05:08:39;;;;;;;45.13;30.55;;;;;;;17.54;91.08;101736.00;5112616;28;20031;-59
2022/07/24 05:11:04;;;;;;;40.25;29.67;;;;;;;17.58;91.50;101732.34;5112330;28;20711;-59
2022/07/24 05:13:29;;;;;;;41.40;31.63;;;;;;;17.62;91.39;101726.06;5112392;28;20057;-59
2022/07/24 05:15:55;;;;;;;39.83;30.70;;;;;;;17.67;90.93;101732.13;5111995;28;20430;-59
2022/07/24 05:18:20;;;;;;;42.05;31.20;;;;;;;17.66;91.34;101733.03;5112431;28;20038;-59
2022/07/24 05:20:46;;;;;;;37.80;29.63;;;;;;;17.70;90.83;101734.69;5112445;28;20038;-59
2022/07/24 05:23:11;;;;;;;42.42;29.88;;;;;;;17.73;91.47;101739.03;5112195;28;20035;-59
2022/07/24 05:25:36;;;;;;;39.83;28.40;;;;;;;17.78;91.39;101737.13;5112196;28;20458;-60
2022/07/24 05:28:02;;;;;;;39.88;29.30;;;;;;;17.84;91.20;101750.16;5112125;28;20031;-59
2022/07/24 05:30:27;;;;;;;36.50;27.98;;;;;;;17.85;90.89;101743.09;5111955;28;20497;-59
2022/07/24 05:32:52;;;;;;;42.30;28.90;;;;;;;17.87;91.10;101736.84;5092670;28;20135;-59
2022/07/24 05:35:18;;;;;;;42.03;30.27;;;;;;;17.89;91.01;101750.03;5091798;28;20328;-59
2022/07/24 05:37:43;;;;;;;39.95;28.23;;;;;;;17.94;90.71;101754.28;5091894;28;20036;-58
2022/07/24 05:40:09;;;;;;;38.95;27.75;;;;;;;17.96;89.97;101752.47;5091641;28;20114;-59
2022/07/24 05:42:34;;;;;;;38.92;28.67;;;;;;;18.00;89.93;101753.25;5091554;28;20154;-59
2022/07/24 05:44:59;;;;;;;40.28;28.90;;;;;;;17.97;89.79;101753.34;5091647;28;20122;-59
2022/07/24 05:47:25;;;;;;;39.30;28.25;;;;;;;18.07;89.47;101755.66;5091467;28;20036;-59
2022/07/24 05:49:50;;;;;;;36.30;27.92;;;;;;;18.15;89.28;101755.44;5091204;28;20032;-59
2022/07/24 05:52:15;;;;;;;38.38;28.02;;;;;;;18.17;88.82;101755.41;5091725;28;20032;-60
2022/07/24 05:54:41;;;;;;;40.13;28.65;;;;;;;18.18;87.14;101747.41;5091588;28;20043;-60
2022/07/24 05:57:06;;;;;;;37.22;27.33;;;;;;;18.21;86.68;101747.28;5091496;28;20071;-60
2022/07/24 05:59:32;;;;;;;40.65;28.15;;;;;;;18.21;87.64;101747.28;5091283;28;20063;-59
2022/07/24 06:01:59;;;;;;;41.13;28.42;;;;;;;18.14;86.54;101729.84;5091358;28;20036;-59
2022/07/24 06:04:25;;;;;;;33.67;25.10;;;;;;;18.29;85.54;101760.31;5091347;28;20032;-60
2022/07/24 06:06:50;;;;;;;33.00;23.80;;;;;;;18.32;85.47;101745.19;5091387;28;20028;-60
2022/07/24 06:09:15;;;;;;;31.40;24.17;;;;;;;18.38;83.80;101760.00;5090893;28;20036;-60
2022/07/24 06:11:40;;;;;;;32.03;23.92;;;;;;;18.41;83.86;101755.50;5091280;28;20127;-60
2022/07/24 06:14:06;;;;;;;31.25;22.85;;;;;;;18.44;82.67;101750.09;5091075;28;20042;-59
2022/07/24 06:16:31;;;;;;;32.33;22.17;;;;;;;18.47;83.00;101753.56;5091279;28;20121;-60
2022/07/24 06:18:56;;;;;;;31.05;22.95;;;;;;;18.52;82.98;101755.16;5091436;28;20040;-59
2022/07/24 06:21:22;;;;;;;31.17;22.25;;;;;;;18.59;82.41;101764.69;5091439;28;20044;-59
2022/07/24 06:23:47;;;;;;;28.77;21.17;;;;;;;19.22;80.59;101770.56;5091341;28;20078;-60
2022/07/24 06:26:13;;;;;;;27.92;20.65;;;;;;;20.95;72.27;101757.78;5090897;28;20039;-59
2022/07/24 06:28:38;;;;;;;23.85;18.75;;;;;;;22.06;67.15;101751.06;5091230;28;20036;-60
2022/07/24 06:31:03;;;;;;;26.55;18.85;;;;;;;21.85;66.85;101752.03;5091299;28;20044;-59
2022/07/24 06:33:29;;;;;;;25.40;18.77;;;;;;;21.28;68.90;101750.19;5091349;28;20076;-60
2022/07/24 06:35:54;;;;;;;25.05;18.55;;;;;;;20.78;69.74;101759.31;5091124;28;20063;-60
2022/07/24 06:38:19;;;;;;;26.57;18.93;;;;;;;20.34;72.09;101765.53;5091274;28;20083;-60
2022/07/24 06:40:44;;;;;;;26.20;18.88;;;;;;;20.03;73.75;101765.88;5091146;28;20299;-59
2022/07/24 06:43:10;;;;;;;22.47;17.50;;;;;;;19.91;74.76;101769.84;5090957;28;20423;-60
2022/07/24 06:45:36;;;;;;;24.17;17.60;;;;;;;19.79;75.40;101763.19;5093063;28;20258;-60
2022/07/24 06:48:02;;;;;;;30.15;19.67;;;;;;;19.68;75.65;101761.88;5092960;28;20412;-59
2022/07/24 06:50:28;;;;;;;22.60;17.80;;;;;;;19.64;75.89;101758.44;5094421;28;20062;-59
2022/07/24 06:52:53;;;;;;;23.67;17.77;;;;;;;19.59;76.99;101759.53;5094513;28;20036;-59
2022/07/24 06:55:18;;;;;;;24.23;18.58;;;;;;;19.57;76.39;101759.56;5094403;28;20073;-59
2022/07/24 06:57:44;;;;;;;23.88;16.52;;;;;;;19.58;76.47;101763.97;5094212;28;20043;-59
2022/07/24 07:00:10;;;;;;;20.63;16.38;;;;;;;19.57;76.60;101754.25;5105655;28;20028;-59
2022/07/24 07:02:36;;;;;;;24.30;16.90;;;;;;;19.64;77.08;101750.47;5113317;28;20027;-61
2022/07/24 07:05:02;;;;;;;19.33;14.95;;;;;;;19.60;74.37;101748.84;5114475;28;20100;-66
2022/07/24 07:07:28;;;;;;;18.73;14.82;;;;;;;19.66;73.89;101751.28;5114513;28;20035;-60
2022/07/24 07:09:53;;;;;;;18.67;13.57;;;;;;;19.69;74.37;101751.19;5114320;28;20028;-60
2022/07/24 07:12:18;;;;;;;15.80;12.88;;;;;;;19.76;73.41;101746.50;5114332;28;20028;-58
2022/07/24 07:14:43;;;;;;;15.48;11.18;;;;;;;19.87;70.90;101738.16;5114062;28;20416;-58
2022/07/24 07:17:09;;;;;;;16.10;11.40;;;;;;;19.89;72.88;101747.78;5111106;28;20042;-57
2022/07/24 07:19:34;;;;;;;16.73;12.27;;;;;;;19.93;71.76;101759.16;5093900;28;20728;-58
2022/07/24 07:21:59;;;;;;;14.85;11.98;;;;;;;20.03;71.64;101761.41;5094006;28;20141;-57
2022/07/24 07:24:25;;;;;;;12.32;9.98;;;;;;;20.10;69.91;101762.03;5093611;28;20441;-59
2022/07/24 07:26:50;;;;;;;9.23;7.75;;;;;;;20.29;67.99;101756.88;5093667;28;20040;-58
2022/07/24 07:29:15;;;;;;;8.87;7.23;;;;;;;20.37;66.93;101755.69;5093658;28;20340;-58
2022/07/24 07:31:40;;;;;;;8.82;6.97;;;;;;;20.40;66.23;101760.91;5093555;28;20294;-58
2022/07/24 07:34:06;;;;;;;10.95;7.40;;;;;;;20.50;65.69;101756.06;5093673;28;20032;-58
2022/07/24 07:36:31;;;;;;;8.30;6.25;;;;;;;20.52;65.77;101748.03;5093765;28;20070;-58
2022/07/24 07:38:57;;;;;;;7.72;5.65;;;;;;;20.60;65.55;101757.44;5093580;28;20036;-59
2022/07/24 07:41:24;;;;;;;7.57;5.65;;;;;;;20.66;65.00;101756.31;5093284;28;20459;-58
2022/07/24 07:43:50;;;;;;;8.88;6.00;;;;;;;20.63;64.04;101757.28;5093263;28;20036;-58
2022/07/24 07:46:15;;;;;;;7.63;5.22;;;;;;;20.68;62.90;101755.31;5093327;28;20032;-58
2022/07/24 07:48:41;;;;;;;7.28;4.80;;;;;;;20.75;60.42;101746.16;5093090;28;20036;-59
2022/07/24 07:51:06;;;;;;;6.35;4.50;;;;;;;20.84;60.66;101755.53;5093576;28;20047;-59
2022/07/24 07:53:32;;;;;;;4.53;3.80;;;;;;;20.90;60.18;101754.44;5093384;28;20039;-58
2022/07/24 07:55:57;;;;;;;5.88;4.07;;;;;;;20.95;61.27;101753.31;5092766;28;20040;-51
2022/07/24 07:58:23;;;;;;;5.65;3.70;;;;;;;21.03;59.56;101748.53;5093131;28;20409;-59
2022/07/24 08:00:48;;;;;;;3.60;3.10;;;;;;;21.08;56.52;101743.00;5096824;28;20028;-58
2022/07/24 08:03:14;;;;;;;4.25;3.08;;;;;;;21.13;58.15;101733.88;5109998;28;20281;-58
2022/07/24 08:05:39;;;;;;;3.28;2.97;;;;;;;21.17;59.14;101738.16;5113464;28;20057;-59
2022/07/24 08:08:04;;;;;;;4.05;3.25;;;;;;;21.29;57.87;101738.59;5113312;28;20031;-59
2022/07/24 08:10:30;;;;;;;3.63;3.33;;;;;;;21.35;56.83;101730.31;5113364;28;20058;-60
2022/07/24 08:12:55;;;;;;;4.78;3.17;;;;;;;21.36;56.95;101740.03;5113248;28;20035;-59
2022/07/24 08:15:20;;;;;;;4.10;3.25;;;;;;;21.39;57.13;101734.59;5113050;28;20363;-58
2022/07/24 08:17:54;;;;;;;4.45;3.15;;;;;;;21.44;58.20;101740.59;5112975;28;20035;-59
2022/07/24 08:20:20;;;;;;;3.67;3.17;;;;;;;21.49;55.49;101744.75;5110990;28;20059;-58
2022/07/24 08:22:45;;;;;;;4.70;3.10;;;;;;;21.51;55.86;101737.56;5092489;28;20074;-60
2022/07/24 08:25:11;;;;;;;2.80;2.53;;;;;;;21.55;55.72;101738.28;5092134;28;20114;-60
2022/07/24 08:27:37;;;;;;;3.10;2.80;;;;;;;21.69;55.83;101746.53;5092691;28;20471;-59
2022/07/24 08:30:04;;;;;;;3.10;2.80;;;;;;;21.65;56.28;101728.06;5092184;28;20089;-60
2022/07/24 08:32:30;;;;;;;3.70;2.70;;;;;;;21.74;57.13;101746.31;5092206;28;20123;-60
2022/07/24 08:34:55;;;;;;;3.75;2.53;;;;;;;21.86;56.75;101743.97;5092280;28;20551;-61
2022/07/24 08:37:20;;;;;;;2.95;2.65;;;;;;;21.92;54.83;101742.81;5092144;28;20118;-53
2022/07/24 08:39:46;;;;;;;3.38;2.50;;;;;;;22.02;54.93;101737.94;5091898;28;20039;-59
2022/07/24 08:42:11;;;;;;;3.40;2.80;;;;;;;22.04;55.37;101741.41;5105819;28;20036;-62
2022/07/24 08:44:38;;;;;;;3.53;3.20;;;;;;;22.14;55.68;101734.72;5112565;28;20063;-60
2022/07/24 08:47:04;;;;;;;4.07;3.05;;;;;;;22.22;54.86;101732.53;5112446;28;20273;-60
2022/07/24 08:49:31;;;;;;;3.60;2.72;;;;;;;22.24;55.15;101733.34;5112207;28;20450;-60
2022/07/24 08:52:02;;;;;;;3.55;2.72;;;;;;;22.34;54.55;101739.94;5112507;28;20449;-60
2022/07/24 08:54:27;;;;;;;4.50;3.50;;;;;;;22.33;54.74;101718.72;5112581;28;20035;-60
2022/07/24 08:56:52;;;;;;;3.63;3.03;;;;;;;22.42;54.46;101728.91;5112370;28;20787;-60
2022/07/24 08:59:20;;;;;;;3.27;2.97;;;;;;;22.36;56.22;101722.06;5111994;28;20052;-60
2022/07/24 09:01:47;;;;;;;4.13;3.55;;;;;;;22.38;55.42;101717.53;5112179;28;20280;-60
2022/07/24 09:04:35;;;;;;;4.28;3.13;;;;;;;22.48;56.94;101731.28;5112106;28;20110;-61
2022/07/24 09:07:05;;;;;;;4.03;3.17;;;;;;;22.72;56.29;101730.06;5111840;28;20031;-59
2022/07/24 09:09:31;;;;;;;2.78;2.47;;;;;;;22.88;56.37;101733.72;5112211;28;20035;-58
2022/07/24 09:12:05;;;;;;;4.85;3.95;;;;;;;23.10;55.27;101732.63;5112168;28;20039;-59
2022/07/24 09:14:38;;;;;;;4.53;3.75;;;;;;;23.47;53.76;101737.78;5112101;28;20472;-60
2022/07/24 09:17:13;;;;;;;4.55;3.40;;;;;;;24.72;51.20;101712.13;5112085;28;20085;-60
2022/07/24 09:19:56;;;;;;;3.72;3.20;;;;;;;26.16;48.33;101709.47;5111895;28;20046;-60
2022/07/24 09:22:30;;;;;;;5.07;3.05;;;;;;;27.66;43.50;101712.69;5111580;28;20054;-60
2022/07/24 09:25:21;;;;;;;6.45;3.15;;;;;;;28.48;41.26;101711.19;5098222;28;20035;-62
2022/07/24 09:27:48;;;;;;;5.82;3.20;;;;;;;28.75;39.53;101702.84;5110629;28;20338;-61
2022/07/24 09:30:29;;;;;;;3.70;3.10;;;;;;;28.89;40.99;101696.44;5110906;28;20031;-63
2022/07/24 09:33:03;;;;;;;4.30;3.50;;;;;;;28.86;40.22;101693.97;5110665;28;20043;-58
2022/07/24 09:35:39;;;;;;;3.05;2.75;;;;;;;28.24;41.25;101692.31;5110611;28;20119;-60
2022/07/24 09:38:07;;;;;;;4.20;2.83;;;;;;;27.37;42.31;101687.81;5110517;28;20052;-58
2022/07/24 09:40:35;;;;;;;4.20;2.63;;;;;;;26.95;44.04;101694.34;5110378;28;20106;-59
2022/07/24 09:43:21;;;;;;;3.58;2.70;;;;;;;26.55;46.67;101693.47;5110447;28;20406;-59
2022/07/24 09:46:04;;;;;;;3.78;3.10;;;;;;;26.16;47.19;101682.66;5110209;28;20024;-59
2022/07/24 09:48:34;;;;;;;4.35;3.08;;;;;;;25.84;47.35;101693.63;5095527;28;20028;-60
2022/07/24 09:51:04;;;;;;;3.25;2.90;;;;;;;25.56;47.85;101686.47;5090060;28;20035;-61
2022/07/24 09:53:32;;;;;;;4.03;3.08;;;;;;;25.48;48.10;101686.06;5090089;28;20032;-60
2022/07/24 09:56:04;;;;;;;3.00;2.70;;;;;;;25.55;48.82;101691.91;5093123;28;20482;-60
2022/07/24 09:58:31;;;;;;;3.28;2.95;;;;;;;25.42;47.65;101683.78;5108269;28;20035;-61
2022/07/24 10:01:00;;;;;;;5.72;2.83;;;;;;;25.49;47.84;101674.38;5089857;28;20062;-57
2022/07/24 10:03:27;;;;;;;3.35;2.80;;;;;;;25.55;48.40;101679.38;5090029;28;20032;-58
2022/07/24 10:05:55;;;;;;;2.67;2.47;;;;;;;25.75;48.41;101686.19;5089783;28;20028;-57
2022/07/24 10:08:21;;;;;;;3.10;2.80;;;;;;;25.75;46.73;101682.66;5089329;28;20116;-59
2022/07/24 10:10:48;;;;;;;3.08;2.78;;;;;;;25.77;47.26;101683.41;5102704;28;20106;-60
2022/07/24 10:13:14;;;;;;;2.83;2.45;;;;;;;25.84;47.24;101676.69;5108312;28;20089;-60
2022/07/24 10:16:16;;;;;;;3.88;2.90;;;;;;;26.02;47.76;101676.38;5090727;28;20814;-59
2022/07/24 10:18:59;;;;;;;5.43;2.92;;;;;;;26.25;48.89;101666.81;5088810;28;20391;-60
2022/07/24 10:21:28;;;;;;;3.92;2.35;;;;;;;26.30;46.34;101662.06;5094744;28;20036;-59
2022/07/24 10:23:59;;;;;;;7.60;2.60;;;;;;;26.45;46.18;101662.00;5094663;28;20115;-59
2022/07/24 10:26:45;;;;;;;3.88;2.60;;;;;;;26.50;46.97;101654.47;5094586;28;20498;-59
2022/07/24 10:29:22;;;;;;;2.80;2.60;;;;;;;26.45;45.62;101652.09;5094895;28;20040;-59
2022/07/24 10:31:55;;;;;;;4.05;2.75;;;;;;;26.62;45.95;101654.53;5094765;28;20056;-61
2022/07/24 10:34:23;;;;;;;5.30;2.70;;;;;;;26.82;44.67;101663.03;5094507;28;20032;-59
2022/07/24 10:37:28;;;;;;;2.60;2.40;;;;;;;26.88;45.45;101659.91;5094465;28;20115;-59
2022/07/24 10:40:08;;;;;;;4.03;3.00;;;;;;;26.94;44.73;101646.09;5094178;28;20039;-59
2022/07/24 10:42:33;;;;;;;4.18;2.58;;;;;;;26.96;43.97;101652.25;5094729;28;20118;-61
2022/07/24 10:45:18;;;;;;;3.38;2.63;;;;;;;26.91;44.38;101648.97;5094109;28;20170;-58
2022/07/24 10:47:45;;;;;;;4.55;2.70;;;;;;;27.03;43.82;101648.13;5094590;28;20036;-58
2022/07/24 10:50:11;;;;;;;3.03;2.20;;;;;;;27.11;42.88;101645.78;5096702;28;20046;-58
2022/07/24 10:52:39;;;;;;;2.72;2.50;;;;;;;27.19;42.66;101646.09;5097487;28;20188;-60
2022/07/24 10:55:26;;;;;;;3.60;2.58;;;;;;;27.22;43.41;101642.34;5114861;28;20073;-59
2022/07/24 10:58:01;;;;;;;4.20;2.97;;;;;;;27.12;42.34;101639.44;5098869;28;20043;-58
2022/07/24 11:00:36;;;;;;;4.03;2.72;;;;;;;27.17;42.61;101639.13;5111590;28;20035;-57
2022/07/24 11:03:08;;;;;;;3.67;2.58;;;;;;;27.22;43.31;101626.22;5114631;28;20419;-58
2022/07/24 11:05:39;;;;;;;3.00;2.70;;;;;;;27.16;42.87;101626.66;5114489;28;20478;-58
2022/07/24 11:08:14;;;;;;;4.35;2.65;;;;;;;27.35;44.20;101622.56;5093822;28;20458;-58
2022/07/24 11:10:54;;;;;;;5.55;3.10;;;;;;;27.58;43.90;101623.63;5094298;28;20680;-58
2022/07/24 11:13:32;;;;;;;3.13;2.58;;;;;;;27.68;40.83;101634.59;5094214;28;20051;-58
2022/07/24 11:16:15;;;;;;;2.67;2.30;;;;;;;27.82;42.24;101623.66;5093876;28;20032;-58